Řízení letového provozu České republiky
Letiste: LKKV Aktualizace: 28.06.2017 05:06:13  UTC
 METAR LKKV 28.06. 05:00 ...
METAR LKKV 280500Z 00000KT 6000 NSC 14/14 Q1004 RMK REG QNH 1002=
 TAF LKKV 27.06. 23:00 AAB
TAF AMD LKKV 280330Z 2804/2906 VRB02KT CAVOK      TEMPO 2804/2806 4000 BR BKN002      PROB30 TEMPO 2804/2806 0400 FG BKN001      PROB40 TEMPO 2811/2817 30010G30KT 2000 TSRA BKN010CB      TEMPO 2902/2906 28010KT 7000 SHRA SCT035TCU      PROB30 TEMPO 2902/2906 30014G26KT 3000 TSRA BKN030CB=